Terminal Aerodrome Forecast
Issued by NWS

Home | Current Version | Previous Version | Text Only | Print | Product List | Glossary On
Versions: 1 2 3 4 5 6 7 8 9 10 11 12 13
000
FTUS42 TJSJ 301127
TAFJMZ
TAF
TJMZ 301127Z 3012/3112 06005KT P6SM FEW040
     FM301400 24008KT P6SM SCT040
     FM301800 16008KT P6SM VCSH SCT025 BKN040
     FM302200 06006KT P6SM SCT025 SCT040
      AMD NOT SKED=

USA.gov is the U.S. government's official web portal to all federal, state and local government web resources and services.